Flight Track Log - Related Links

Times and Time Zones

All times are in EDT time to prevent confusion due to time zone crossing. See the UAL4202 flight status page for this flight to view local times or setup timezone preferences in your user account.

Time Position Orientation Groundspeed Altitude Reporting Facility
EDT Latitude Longitude Course Direction KTS MPH feet Rate Location/Type
Tue 05:21:11 PM 40.6519 -74.1792 258° West 168 193 1,800  Level New York Center
Tue 05:21:39 PM 40.6333 -74.2000 220° Southwest 188 216 2,500 1,705 Climbing New York TRACON
Tue 05:22:39 PM 40.5833 -74.2500 217° Southwest 247 284 4,300 2,150 Climbing New York TRACON
Tue 05:23:39 PM 40.5833 -74.3333 270° West 234 269 6,800 2,300 Climbing New York TRACON
Tue 05:24:00 PM 40.6833 -74.7088 270° West  Level FlightAware Approximate
Tue 05:24:39 PM 40.6000 -74.4167 285° West 253 291 8,900  Level New York TRACON
Tue 05:25:00 PM 40.6834 -74.8444 270° West  Level FlightAware Approximate
Tue 05:26:00 PM 40.6812 -74.9796 258° West  Level FlightAware Approximate
Tue 05:26:10 PM 40.6708 -74.5194 312° West 266 306 11,500  Level New York Center
Tue 05:27:11 PM 40.7367 -74.5506 340° North 269 310 13,100 1,488 Climbing New York Center
Tue 05:28:11 PM 40.7414 -74.6547 273° West 243 280 14,500 1,140 Climbing New York Center
Tue 05:29:12 PM 40.7300 -74.7500 261° West 267 307 15,400 992 Climbing New York Center
Tue 05:30:12 PM 40.7133 -74.8694 260° West 304 350 16,500 821 Climbing New York Center
Tue 05:31:09 PM 40.6967 -74.9861 259° West 322 371 17,000 559 Climbing New York Center
Tue 05:32:10 PM 40.6694 -75.1078 254° West 343 395 17,600 836 Climbing New York Center
Tue 05:33:11 PM 40.6197 -75.2139 238° Southwest 348 400 18,700 1,190 Climbing New York Center
Tue 05:34:11 PM 40.5717 -75.3228 240° Southwest 348 400 20,000 1,339 Climbing New York Center
Tue 05:35:12 PM 40.5236 -75.4317 240° Southwest 348 400 21,400 1,361 Climbing New York Center
Tue 05:36:10 PM 40.4736 -75.5372 238° Southwest 348 400 22,700 1,361 Climbing New York Center
Tue 05:37:11 PM 40.4256 -75.6431 239° Southwest 343 395 24,100 1,230 Climbing New York Center
Tue 05:38:12 PM 40.3772 -75.7514 240° Southwest 343 395 25,200 1,008 Climbing New York Center
Tue 05:39:10 PM 40.3247 -75.8619 238° Southwest 343 395 26,100 958 Climbing New York Center
Tue 05:40:11 PM 40.2767 -75.9592 237° Southwest 348 400 27,100 1,388 Climbing New York Center
Tue 05:41:11 PM 40.2283 -76.0617 238° Southwest 348 400 28,900 1,587 Climbing New York Center
Tue 05:42:12 PM 40.1819 -76.1639 239° Southwest 338 389 30,300 1,261 Climbing New York Center
Tue 05:43:10 PM 40.1358 -76.2636 239° Southwest 332 382 31,400 1,068 Climbing New York Center
Tue 05:44:10 PM 40.0917 -76.3606 239° Southwest 325 374 32,400 992 Climbing New York Center
Tue 05:45:11 PM 40.0475 -76.4547 239° Southwest 320 368 33,400 971 Climbing New York Center
Tue 05:47:34 PM 39.9400 -76.6794 238° Southwest 303 349 35,700 768 Climbing Washington Center
Tue 05:48:34 PM 39.8975 -76.7761 240° Southwest 298 343 36,000 150 Climbing Washington Center
Tue 05:49:34 PM 39.8506 -76.8753 238° Southwest 307 353 36,000  Level Washington Center
Tue 05:50:34 PM 39.8017 -76.9769 238° Southwest 330 380 36,000  Level Washington Center
Tue 05:51:34 PM 39.7503 -77.0839 238° Southwest 351 404 36,000  Level Washington Center
Tue 05:52:34 PM 39.6989 -77.1961 239° Southwest 366 421 36,000  Level Washington Center
Tue 05:53:34 PM 39.6453 -77.3108 239° Southwest 372 428 36,000  Level Washington Center
Tue 05:54:34 PM 39.5828 -77.4414 238° Southwest 390 449 36,000  Level Washington Center
Tue 05:55:34 PM 39.5247 -77.5583 237° Southwest 395 455 36,000  Level Washington Center
Tue 05:56:34 PM 39.4664 -77.6803 238° Southwest 395 455 36,000  Level Washington Center
Tue 05:57:34 PM 39.4081 -77.7994 238° Southwest 395 455 36,000  Level Washington Center
Tue 05:58:34 PM 39.3556 -77.9242 241° Southwest 400 460 36,000  Level Washington Center
Tue 05:59:34 PM 39.3072 -78.0486 243° Southwest 395 455 36,000  Level Washington Center
Tue 06:00:34 PM 39.2567 -78.1728 242° Southwest 390 449 36,000  Level Washington Center
Tue 06:01:34 PM 39.2061 -78.2969 242° Southwest 390 449 36,000  Level Washington Center
Tue 06:02:34 PM 39.1575 -78.4183 243° Southwest 390 449 36,000  Level Washington Center
Tue 06:03:34 PM 39.1067 -78.5419 242° Southwest 390 449 36,000  Level Washington Center
Tue 06:04:34 PM 39.0575 -78.6658 243° Southwest 390 449 36,000  Level Washington Center
Tue 06:05:34 PM 39.0064 -78.7864 241° Southwest 390 449 36,000  Level Washington Center
Tue 06:06:34 PM 38.9572 -78.9097 243° Southwest 390 449 36,000  Level Washington Center
Tue 06:07:34 PM 38.9081 -79.0331 243° Southwest 385 443 36,000  Level Washington Center
Tue 06:08:34 PM 38.8564 -79.1533 241° Southwest 385 443 36,000  Level Washington Center
Tue 06:09:34 PM 38.8358 -79.2828 259° West 369 425 36,000  Level Washington Center
Tue 06:10:34 PM 38.8339 -79.4161 269° West 374 430 36,000  Level Washington Center
Tue 06:11:34 PM 38.8317 -79.5492 269° West 374 430 36,000  Level Washington Center
Tue 06:12:34 PM 38.8339 -79.6719 271° West 385 443 36,000  Level Washington Center
Tue 06:14:10 PM 38.8247 -79.8806 267° West 378 435 36,000  Level Indianapolis Center
Tue 06:15:11 PM 38.8222 -80.0139 269° West 376 433 36,000  Level Indianapolis Center
Tue 06:16:13 PM 38.8181 -80.1475 268° West 375 432 36,000  Level Indianapolis Center
Tue 06:17:15 PM 38.8158 -80.2822 269° West 378 435 36,000  Level Indianapolis Center
Tue 06:18:16 PM 38.8103 -80.4431 268° West 376 433 36,000  Level Indianapolis Center
Tue 06:19:18 PM 38.8064 -80.5767 268° West 376 433 36,000  Level Indianapolis Center
Tue 06:20:20 PM 38.7936 -80.7100 263° West 376 433 36,000  Level Indianapolis Center
Tue 06:21:21 PM 38.7819 -80.8439 264° West 378 435 36,000  Level Indianapolis Center
Tue 06:22:23 PM 38.7692 -80.9783 263° West 380 437 36,000  Level Indianapolis Center
Tue 06:23:25 PM 38.7572 -81.1117 263° West 378 435 36,000  Level Indianapolis Center
Tue 06:24:26 PM 38.7442 -81.2467 263° West 381 438 36,000  Level Indianapolis Center
Tue 06:25:28 PM 38.7319 -81.3794 263° West 377 434 36,000  Level Indianapolis Center
Tue 06:26:30 PM 38.7150 -81.5411 262° West 379 436 36,000  Level Indianapolis Center
Tue 06:27:31 PM 38.7028 -81.6781 264° West 382 440 36,000  Level Indianapolis Center
Tue 06:28:33 PM 38.6903 -81.8008 263° West 385 443 36,000  Level Indianapolis Center
Tue 06:29:35 PM 38.6761 -81.9344 262° West 382 440 36,000  Level Indianapolis Center
Tue 06:30:36 PM 38.6594 -82.0992 263° West 387 445 36,000  Level Indianapolis Center
Tue 06:31:38 PM 38.6444 -82.2369 262° West 391 450 36,000  Level Indianapolis Center
Tue 06:32:40 PM 38.6294 -82.3756 262° West 394 453 36,000  Level Indianapolis Center
Tue 06:33:42 PM 38.6075 -82.5217 259° West 393 452 36,000  Level Indianapolis Center
Tue 06:34:43 PM 38.5711 -82.6528 250° West 391 450 36,000  Level Indianapolis Center
Tue 06:35:45 PM 38.5336 -82.7828 250° West 391 450 36,000  Level Indianapolis Center
Tue 06:36:47 PM 38.4969 -82.9100 250° West 383 441 36,000  Level Indianapolis Center
Tue 06:37:48 PM 38.4614 -83.0389 251° West 384 442 36,000  Level Indianapolis Center
Tue 06:38:50 PM 38.4211 -83.1892 251° West 385 443 36,000  Level Indianapolis Center
Tue 06:39:52 PM 38.3858 -83.3217 251° West 394 453 36,000  Level Indianapolis Center
Tue 06:40:53 PM 38.3486 -83.4556 251° West 399 459 36,000  Level Indianapolis Center
Tue 06:41:55 PM 38.3119 -83.5869 250° West 396 456 36,000  Level Indianapolis Center
Tue 06:42:57 PM 38.2747 -83.7186 250° West 395 455 36,000  Level Indianapolis Center
Tue 06:43:59 PM 38.2403 -83.8489 251° West 392 451 36,000  Level Indianapolis Center
Tue 06:45:00 PM 38.2022 -84.0039 253° West 392 451 36,000  Level Indianapolis Center
Tue 06:46:02 PM 38.1697 -84.1356 253° West 392 451 36,000  Level Indianapolis Center
Tue 06:47:04 PM 38.1378 -84.2675 253° West 392 451 36,000  Level Indianapolis Center
Tue 06:48:05 PM 38.1064 -84.3986 253° West 387 445 36,000  Level Indianapolis Center
Tue 06:49:07 PM 38.0744 -84.5297 253° West 387 445 36,000  Level Indianapolis Center
Tue 06:50:09 PM 38.0406 -84.6619 252° West 392 451 36,000  Level Indianapolis Center
Tue 06:51:10 PM 38.0075 -84.7950 253° West 395 455 36,000  Level Indianapolis Center
Tue 06:52:12 PM 37.9683 -84.9506 252° West 396 456 36,000  Level Indianapolis Center
Tue 06:53:14 PM 37.9342 -85.0817 252° West 395 455 36,000  Level Indianapolis Center
Tue 06:54:15 PM 37.9033 -85.2008 252° West 392 451 36,000  Level Indianapolis Center
Tue 06:55:17 PM 37.8733 -85.3297 254° West 385 443 36,000  Level Indianapolis Center
Tue 06:56:18 PM 37.8389 -85.4606 252° West 388 447 36,000  Level Indianapolis Center
Tue 06:57:20 PM 37.7994 -85.6167 252° West 386 444 36,000  Level Indianapolis Center
Tue 06:58:21 PM 37.7594 -85.7453 249° West 390 449 36,000  Level Indianapolis Center
Tue 06:59:23 PM 37.7158 -85.8667 246° West 380 437 36,000  Level Indianapolis Center
Tue 07:00:24 PM 37.6722 -85.9869 245° Southwest 374 430 36,000  Level Indianapolis Center
Tue 07:01:26 PM 37.6278 -86.1050 245° Southwest 370 426 36,000  Level Indianapolis Center
Tue 07:02:27 PM 37.5842 -86.2322 247° West 365 420 36,000  Level Indianapolis Center
Tue 07:03:29 PM 37.5422 -86.3553 247° West 369 425 36,000  Level Memphis Center
Tue 07:04:29 PM 37.4961 -86.4781 245° Southwest 376 433 36,000  Level Memphis Center
Tue 07:05:29 PM 37.4542 -86.6003 247° West 387 445 36,000  Level Memphis Center
Tue 07:06:29 PM 37.4100 -86.7250 246° West 387 445 36,000  Level Memphis Center
Tue 07:07:29 PM 37.3656 -86.8497 246° West 387 445 36,000  Level Memphis Center
Tue 07:08:29 PM 37.3192 -86.9744 245° Southwest 387 445 36,000  Level Memphis Center
Tue 07:09:29 PM 37.2803 -87.0856 246° West 387 445 36,000  Level Memphis Center
Tue 07:10:29 PM 37.2336 -87.2125 245° Southwest 387 445 36,000  Level Memphis Center
Tue 07:11:29 PM 37.1867 -87.3367 245° Southwest 392 451 36,000  Level Memphis Center
Tue 07:12:29 PM 37.1417 -87.4606 246° West 392 451 36,000  Level Memphis Center
Tue 07:13:29 PM 37.0967 -87.5872 246° West 392 451 36,000  Level Memphis Center
Tue 07:14:29 PM 37.0619 -87.7158 251° West 392 451 36,000  Level Memphis Center
Tue 07:15:29 PM 37.1064 -87.8444 293° West 378 435 36,000  Level Memphis Center
Tue 07:16:29 PM 37.1731 -87.9542 307° West 397 457 36,000  Level Memphis Center
Tue 07:17:29 PM 37.2586 -88.0661 314° West 410 472 36,000 -350 Level Memphis Center
Tue 07:18:29 PM 37.3375 -88.1631 316° Northwest 416 479 35,300 -900 Descending Memphis Center
Tue 07:19:29 PM 37.4183 -88.2628 316° Northwest 416 479 34,200 -988 Descending Memphis Center
Tue 07:19:54 PM 37.4461 -88.2972 315° West 413 475 33,900 -1,605 Descending Indianapolis Center
Tue 07:20:55 PM 37.5356 -88.4183 313° West 412 474 31,900 -2,000 Descending Indianapolis Center
Tue 07:21:57 PM 37.6031 -88.5233 309° West 392 451 29,800 -1,714 Descending Indianapolis Center
Tue 07:22:26 PM 37.6281 -88.5669 306° West 389 448 29,300 -774 Descending Kansas City Center
Tue 07:23:30 PM 37.6825 -88.6828 301° West 385 443 28,600 -780 Descending Kansas City Center
Tue 07:24:29 PM 37.7131 -88.8322 285° West 412 474 27,700 -976 Descending Kansas City Center
Tue 07:25:33 PM 37.7406 -88.9775 284° West 421 484 26,600 -1,008 Descending Kansas City Center
Tue 07:26:34 PM 37.7661 -89.1089 284° West 397 457 25,600 -1,122 Descending Kansas City Center
Tue 07:27:36 PM 37.7833 -89.2294 280° West 363 418 24,300 -1,488 Descending Kansas City Center
Tue 07:28:39 PM 37.8011 -89.3806 279° West 360 414 22,500 -1,512 Descending Kansas City Center
Tue 07:29:39 PM 37.8161 -89.5072 279° West 359 413 21,200 -1,258 Descending Kansas City Center
Tue 07:30:43 PM 37.8294 -89.6272 278° West 351 404 19,900 -1,403 Descending Kansas City Center
Tue 07:31:43 PM 37.8547 -89.7483 285° West 343 395 18,300 -1,487 Descending Kansas City Center
Tue 07:32:40 PM 37.8897 -89.7836 322° Northwest 344 396 17,000 -1,558 Descending FAA TRACON SMA TRACON (SMA)
Tue 07:33:00 PM 37.9064 -89.8231 298° West 335 386 16,300 -1,650 Descending FAA TRACON SMA TRACON (SMA)
Tue 07:33:20 PM 37.9194 -89.8547 298° West 330 380 15,900 -1,350 Descending FAA TRACON SMA TRACON (SMA)
Tue 07:33:40 PM 37.9328 -89.8853 299° West 324 373 15,400 -1,650 Descending FAA TRACON SMA TRACON (SMA)
Tue 07:34:00 PM 37.9575 -89.9136 318° Northwest 318 366 14,800 -1,650 Descending FAA TRACON SMA TRACON (SMA)
Tue 07:34:20 PM 37.9825 -89.9306 332° Northwest 325 374 14,300 -1,650 Descending FAA TRACON SMA TRACON (SMA)
Tue 07:34:40 PM 38.0081 -89.9461 334° Northwest 332 382 13,700 -2,100 Descending FAA TRACON SMA TRACON (SMA)
Tue 07:35:00 PM 38.0411 -89.9653 335° Northwest 337 388 12,900 -2,250 Descending FAA TRACON SMA TRACON (SMA)
Tue 07:35:20 PM 38.0681 -89.9800 337° Northwest 340 391 12,200 -2,049 Descending FAA TRACON SMA TRACON (SMA)
Tue 07:35:41 PM 38.0947 -89.9953 336° Northwest 343 395 11,500 -2,100 Descending FAA TRACON SMA TRACON (SMA)
Tue 07:36:00 PM 38.1300 -90.0097 342° North 345 397 10,800 -1,538 Descending FAA TRACON SMA TRACON (SMA)
Tue 07:36:20 PM 38.1583 -90.0144 353° North 340 391 10,500 -900 Descending FAA TRACON SMA TRACON (SMA)
Tue 07:36:40 PM 38.1867 -90.0172 356° North 333 383 10,200 -900 Descending FAA TRACON SMA TRACON (SMA)
Tue 07:37:00 PM 38.2192 -90.0219 353° North 314 361 9,900 -1,050 Descending FAA TRACON SMA TRACON (SMA)
Tue 07:37:20 PM 38.2444 -90.0239 357° North 300 345 9,500 -1,171 Descending FAA TRACON SMA TRACON (SMA)
Tue 07:37:41 PM 38.2686 -90.0267 355° North 289 333 9,100 -900 Descending FAA TRACON SMA TRACON (SMA)
Tue 07:38:00 PM 38.2997 -90.0303 355° North 288 331 8,900 -923 Descending FAA TRACON SMA TRACON (SMA)
Tue 07:38:20 PM 38.3242 -90.0336 354° North 287 330 8,500 -1,200 Descending FAA TRACON SMA TRACON (SMA)
Tue 07:38:40 PM 38.3492 -90.0361 356° North 291 335 8,100 -900 Descending FAA TRACON SMA TRACON (SMA)
Tue 07:39:00 PM 38.3803 -90.0383 357° North 291 335 7,900 -450 Descending FAA TRACON SMA TRACON (SMA)
Tue 07:39:20 PM 38.4042 -90.0425 352° North 287 330 7,800 -750 Descending FAA TRACON SMA TRACON (SMA)
Tue 07:39:40 PM 38.4289 -90.0478 351° North 288 331 7,400 -1,650 Descending FAA TRACON SMA TRACON (SMA)
Tue 07:40:00 PM 38.4594 -90.0550 350° North 292 336 6,700 -1,800 Descending FAA TRACON SMA TRACON (SMA)
Tue 07:40:20 PM 38.4842 -90.0603 351° North 290 334 6,200 -1,500 Descending FAA TRACON SMA TRACON (SMA)
Tue 07:40:40 PM 38.5078 -90.0664 349° North 285 328 5,700 -1,650 Descending FAA TRACON SMA TRACON (SMA)
Tue 07:41:00 PM 38.5369 -90.0733 349° North 279 321 5,100 -1,650 Descending FAA TRACON SMA TRACON (SMA)
Tue 07:41:20 PM 38.5603 -90.0792 349° North 277 319 4,600 -1,500 Descending FAA TRACON SMA TRACON (SMA)
Tue 07:41:40 PM 38.5825 -90.0850 348° North 272 313 4,100 -1,500 Descending FAA TRACON SMA TRACON (SMA)
Tue 07:42:00 PM 38.6108 -90.0922 349° North 268 308 3,600 -900 Descending FAA TRACON SMA TRACON (SMA)
Tue 07:42:20 PM 38.6319 -90.0983 347° North 260 299 3,500 -150 Descending FAA TRACON SMA TRACON (SMA)
Tue 07:42:40 PM 38.6497 -90.1131 327° Northwest 253 291 3,500 -450 Level FAA TRACON SMA TRACON (SMA)
Tue 07:43:00 PM 38.6631 -90.1417 301° West 246 283 3,200 -900 Descending FAA TRACON SMA TRACON (SMA)
Tue 07:43:20 PM 38.6739 -90.1633 303° West 239 275 2,900 -1,050 Descending FAA TRACON SMA TRACON (SMA)
Tue 07:43:40 PM 38.6847 -90.1844 303° West 232 267 2,500 -1,050 Descending FAA TRACON SMA TRACON (SMA)
Tue 07:44:00 PM 38.6964 -90.2094 301° West 216 249 2,200 -1,200 Descending FAA TRACON SMA TRACON (SMA)
Tue 07:44:20 PM 38.7053 -90.2264 304° West 192 221 1,700 -1,050 Descending FAA TRACON SMA TRACON (SMA)
Tue 07:44:40 PM 38.7133 -90.2411 305° West 171 197 1,500 -900 Descending FAA TRACON SMA TRACON (SMA)
Tue 07:45:00 PM 38.7214 -90.2586 301° West 149 171 1,100 -1,050 Descending FAA TRACON SMA TRACON (SMA)
Tue 07:45:20 PM 38.7275 -90.2717 301° West 139 160 800 -732 Descending FAA TRACON SMA TRACON (SMA)
Tue 07:45:41 PM 38.7319 -90.2811 301° West 135 155 600 -571 Descending FAA TRACON SMA TRACON (SMA)

Login

Don't have an account? Register now (free) for customized features, flight alerts, and more!